sensor_id;sensor_type;location;lat;lon;timestamp;P1;durP1;ratioP1;P2;durP2;ratioP2
7295;SDS011;40758;54.038;11.684;2023-10-08T00:01:29;5.93;;;2.83;;
7295;SDS011;40758;54.038;11.684;2023-10-08T00:04:00;4.40;;;1.83;;
7295;SDS011;40758;54.038;11.684;2023-10-08T00:06:32;4.38;;;2.58;;
7295;SDS011;40758;54.038;11.684;2023-10-08T00:08:59;3.90;;;1.95;;
7295;SDS011;40758;54.038;11.684;2023-10-08T00:11:27;4.38;;;2.85;;
7295;SDS011;40758;54.038;11.684;2023-10-08T00:13:55;6.35;;;2.75;;
7295;SDS011;40758;54.038;11.684;2023-10-08T00:16:24;5.38;;;2.20;;
7295;SDS011;40758;54.038;11.684;2023-10-08T00:18:50;4.55;;;2.78;;
7295;SDS011;40758;54.038;11.684;2023-10-08T00:21:19;9.60;;;3.40;;
7295;SDS011;40758;54.038;11.684;2023-10-08T00:23:55;3.10;;;2.35;;
7295;SDS011;40758;54.038;11.684;2023-10-08T00:26:26;4.07;;;2.22;;
7295;SDS011;40758;54.038;11.684;2023-10-08T00:29:00;3.83;;;2.47;;
7295;SDS011;40758;54.038;11.684;2023-10-08T00:31:33;3.22;;;1.63;;
7295;SDS011;40758;54.038;11.684;2023-10-08T00:34:13;4.32;;;2.00;;
7295;SDS011;40758;54.038;11.684;2023-10-08T00:36:41;3.03;;;2.38;;
7295;SDS011;40758;54.038;11.684;2023-10-08T00:39:11;4.40;;;2.60;;
7295;SDS011;40758;54.038;11.684;2023-10-08T00:41:43;4.00;;;2.50;;
7295;SDS011;40758;54.038;11.684;2023-10-08T00:44:14;4.28;;;2.10;;
7295;SDS011;40758;54.038;11.684;2023-10-08T00:49:32;2.60;;;2.38;;
7295;SDS011;40758;54.038;11.684;2023-10-08T00:52:15;3.17;;;2.88;;
7295;SDS011;40758;54.038;11.684;2023-10-08T00:54:42;3.00;;;2.42;;
7295;SDS011;40758;54.038;11.684;2023-10-08T00:57:15;4.28;;;3.85;;
7295;SDS011;40758;54.038;11.684;2023-10-08T00:59:46;4.93;;;1.88;;
7295;SDS011;40758;54.038;11.684;2023-10-08T01:02:20;3.30;;;1.27;;
7295;SDS011;40758;54.038;11.684;2023-10-08T01:04:51;3.10;;;2.72;;
7295;SDS011;40758;54.038;11.684;2023-10-08T01:07:18;2.72;;;2.35;;
7295;SDS011;40758;54.038;11.684;2023-10-08T01:09:45;2.95;;;2.25;;
7295;SDS011;40758;54.038;11.684;2023-10-08T01:14:54;2.78;;;2.58;;
7295;SDS011;40758;54.038;11.684;2023-10-08T01:17:21;2.95;;;2.60;;
7295;SDS011;40758;54.038;11.684;2023-10-08T01:19:53;4.43;;;1.80;;
7295;SDS011;40758;54.038;11.684;2023-10-08T01:22:41;3.58;;;3.20;;
7295;SDS011;40758;54.038;11.684;2023-10-08T01:25:10;3.10;;;1.85;;
7295;SDS011;40758;54.038;11.684;2023-10-08T01:27:37;4.25;;;3.38;;
7295;SDS011;40758;54.038;11.684;2023-10-08T01:30:04;2.25;;;2.05;;
7295;SDS011;40758;54.038;11.684;2023-10-08T01:32:44;3.28;;;1.80;;
7295;SDS011;40758;54.038;11.684;2023-10-08T01:35:12;2.38;;;2.17;;
7295;SDS011;40758;54.038;11.684;2023-10-08T01:37:52;3.20;;;2.63;;
7295;SDS011;40758;54.038;11.684;2023-10-08T01:40:22;2.45;;;0.73;;
7295;SDS011;40758;54.038;11.684;2023-10-08T01:42:52;3.28;;;2.70;;
7295;SDS011;40758;54.038;11.684;2023-10-08T01:45:19;3.97;;;2.10;;
7295;SDS011;40758;54.038;11.684;2023-10-08T01:47:46;4.03;;;2.35;;
7295;SDS011;40758;54.038;11.684;2023-10-08T01:50:18;3.28;;;3.08;;
7295;SDS011;40758;54.038;11.684;2023-10-08T01:52:48;3.38;;;2.97;;
7295;SDS011;40758;54.038;11.684;2023-10-08T01:55:19;4.40;;;2.95;;
7295;SDS011;40758;54.038;11.684;2023-10-08T01:57:46;3.78;;;2.83;;
7295;SDS011;40758;54.038;11.684;2023-10-08T02:00:15;3.75;;;2.25;;
7295;SDS011;40758;54.038;11.684;2023-10-08T02:02:55;3.20;;;1.80;;
7295;SDS011;40758;54.038;11.684;2023-10-08T02:05:24;3.63;;;3.03;;
7295;SDS011;40758;54.038;11.684;2023-10-08T02:07:52;3.55;;;3.22;;
7295;SDS011;40758;54.038;11.684;2023-10-08T02:10:21;3.17;;;2.88;;
7295;SDS011;40758;54.038;11.684;2023-10-08T02:12:48;5.22;;;3.80;;
7295;SDS011;40758;54.038;11.684;2023-10-08T02:15:15;4.03;;;2.35;;
7295;SDS011;40758;54.038;11.684;2023-10-08T02:17:42;2.53;;;2.00;;
7295;SDS011;40758;54.038;11.684;2023-10-08T02:20:10;5.60;;;1.98;;
7295;SDS011;40758;54.038;11.684;2023-10-08T02:22:39;3.22;;;1.88;;
7295;SDS011;40758;54.038;11.684;2023-10-08T02:25:05;3.58;;;2.97;;
7295;SDS011;40758;54.038;11.684;2023-10-08T02:27:35;1.70;;;0.75;;
7295;SDS011;40758;54.038;11.684;2023-10-08T02:30:04;3.47;;;2.38;;
7295;SDS011;40758;54.038;11.684;2023-10-08T02:32:32;5.18;;;2.95;;
7295;SDS011;40758;54.038;11.684;2023-10-08T02:34:59;3.63;;;3.15;;
7295;SDS011;40758;54.038;11.684;2023-10-08T02:37:27;1.90;;;0.77;;
7295;SDS011;40758;54.038;11.684;2023-10-08T02:39:58;2.67;;;2.08;;
7295;SDS011;40758;54.038;11.684;2023-10-08T02:42:25;3.25;;;1.90;;
7295;SDS011;40758;54.038;11.684;2023-10-08T02:44:51;3.00;;;1.50;;
7295;SDS011;40758;54.038;11.684;2023-10-08T02:47:18;3.10;;;2.33;;
7295;SDS011;40758;54.038;11.684;2023-10-08T02:49:47;3.35;;;1.73;;
7295;SDS011;40758;54.038;11.684;2023-10-08T02:52:18;2.72;;;2.25;;
7295;SDS011;40758;54.038;11.684;2023-10-08T02:54:47;2.63;;;2.42;;
7295;SDS011;40758;54.038;11.684;2023-10-08T02:57:21;2.92;;;2.20;;
7295;SDS011;40758;54.038;11.684;2023-10-08T02:59:48;2.80;;;2.17;;
7295;SDS011;40758;54.038;11.684;2023-10-08T03:02:15;3.22;;;2.08;;
7295;SDS011;40758;54.038;11.684;2023-10-08T03:04:46;5.85;;;5.40;;
7295;SDS011;40758;54.038;11.684;2023-10-08T03:07:17;7.53;;;0.60;;
7295;SDS011;40758;54.038;11.684;2023-10-08T03:09:49;3.65;;;1.83;;
7295;SDS011;40758;54.038;11.684;2023-10-08T03:12:20;2.60;;;2.17;;
7295;SDS011;40758;54.038;11.684;2023-10-08T03:14:54;4.80;;;2.60;;
7295;SDS011;40758;54.038;11.684;2023-10-08T03:17:41;4.28;;;2.35;;
7295;SDS011;40758;54.038;11.684;2023-10-08T03:20:20;3.50;;;2.80;;
7295;SDS011;40758;54.038;11.684;2023-10-08T03:23:05;2.08;;;0.50;;
7295;SDS011;40758;54.038;11.684;2023-10-08T03:25:40;3.63;;;2.67;;
7295;SDS011;40758;54.038;11.684;2023-10-08T03:28:12;2.95;;;2.33;;
7295;SDS011;40758;54.038;11.684;2023-10-08T03:30:39;2.80;;;2.50;;
7295;SDS011;40758;54.038;11.684;2023-10-08T03:33:16;4.00;;;3.70;;
7295;SDS011;40758;54.038;11.684;2023-10-08T03:35:51;4.90;;;4.50;;
7295;SDS011;40758;54.038;11.684;2023-10-08T03:38:22;3.17;;;2.50;;
7295;SDS011;40758;54.038;11.684;2023-10-08T03:40:55;1.58;;;0.60;;
7295;SDS011;40758;54.038;11.684;2023-10-08T03:43:34;2.65;;;2.45;;
7295;SDS011;40758;54.038;11.684;2023-10-08T03:46:09;2.85;;;2.40;;
7295;SDS011;40758;54.038;11.684;2023-10-08T03:48:42;1.50;;;0.40;;
7295;SDS011;40758;54.038;11.684;2023-10-08T03:51:16;2.80;;;1.65;;
7295;SDS011;40758;54.038;11.684;2023-10-08T03:53:53;4.45;;;4.13;;
7295;SDS011;40758;54.038;11.684;2023-10-08T03:56:36;3.28;;;2.10;;
7295;SDS011;40758;54.038;11.684;2023-10-08T03:59:03;4.78;;;2.58;;
7295;SDS011;40758;54.038;11.684;2023-10-08T04:01:47;3.58;;;2.13;;
7295;SDS011;40758;54.038;11.684;2023-10-08T04:04:21;2.90;;;2.15;;
7295;SDS011;40758;54.038;11.684;2023-10-08T04:06:56;3.05;;;2.75;;
7295;SDS011;40758;54.038;11.684;2023-10-08T04:09:43;2.33;;;0.70;;
7295;SDS011;40758;54.038;11.684;2023-10-08T04:12:11;2.65;;;2.42;;
7295;SDS011;40758;54.038;11.684;2023-10-08T04:14:45;3.75;;;0.50;;
7295;SDS011;40758;54.038;11.684;2023-10-08T04:17:12;3.88;;;3.67;;
7295;SDS011;40758;54.038;11.684;2023-10-08T04:19:41;4.03;;;3.72;;
7295;SDS011;40758;54.038;11.684;2023-10-08T04:22:08;3.55;;;3.20;;
7295;SDS011;40758;54.038;11.684;2023-10-08T04:24:42;3.35;;;3.15;;
7295;SDS011;40758;54.038;11.684;2023-10-08T04:27:10;2.55;;;1.80;;
7295;SDS011;40758;54.038;11.684;2023-10-08T04:29:37;3.78;;;2.88;;
7295;SDS011;40758;54.038;11.684;2023-10-08T04:32:04;5.13;;;3.13;;
7295;SDS011;40758;54.038;11.684;2023-10-08T04:34:38;3.53;;;3.22;;
7295;SDS011;40758;54.038;11.684;2023-10-08T04:37:10;3.50;;;3.22;;
7295;SDS011;40758;54.038;11.684;2023-10-08T04:39:45;3.42;;;2.90;;
7295;SDS011;40758;54.038;11.684;2023-10-08T04:42:14;2.78;;;0.45;;
7295;SDS011;40758;54.038;11.684;2023-10-08T04:44:53;3.83;;;2.05;;
7295;SDS011;40758;54.038;11.684;2023-10-08T04:47:21;3.17;;;2.88;;
7295;SDS011;40758;54.038;11.684;2023-10-08T04:50:01;3.92;;;3.63;;
7295;SDS011;40758;54.038;11.684;2023-10-08T04:52:32;2.58;;;2.38;;
7295;SDS011;40758;54.038;11.684;2023-10-08T04:57:39;3.13;;;2.67;;
7295;SDS011;40758;54.038;11.684;2023-10-08T05:00:09;3.10;;;2.80;;
7295;SDS011;40758;54.038;11.684;2023-10-08T05:02:41;3.63;;;3.42;;
7295;SDS011;40758;54.038;11.684;2023-10-08T05:05:25;5.30;;;3.38;;
7295;SDS011;40758;54.038;11.684;2023-10-08T05:08:04;2.40;;;1.83;;
7295;SDS011;40758;54.038;11.684;2023-10-08T05:10:48;3.30;;;2.67;;
7295;SDS011;40758;54.038;11.684;2023-10-08T05:13:28;2.75;;;2.25;;
7295;SDS011;40758;54.038;11.684;2023-10-08T05:16:11;3.67;;;3.40;;
7295;SDS011;40758;54.038;11.684;2023-10-08T05:18:57;3.17;;;2.00;;
7295;SDS011;40758;54.038;11.684;2023-10-08T05:21:43;4.43;;;2.92;;
7295;SDS011;40758;54.038;11.684;2023-10-08T05:26:54;3.20;;;2.90;;
7295;SDS011;40758;54.038;11.684;2023-10-08T05:29:41;2.83;;;2.47;;
7295;SDS011;40758;54.038;11.684;2023-10-08T05:32:40;3.63;;;3.33;;
7295;SDS011;40758;54.038;11.684;2023-10-08T05:38:12;3.28;;;2.97;;
7295;SDS011;40758;54.038;11.684;2023-10-08T05:40:45;4.50;;;2.13;;
7295;SDS011;40758;54.038;11.684;2023-10-08T05:43:35;2.75;;;2.55;;
7295;SDS011;40758;54.038;11.684;2023-10-08T05:46:14;2.97;;;2.42;;
7295;SDS011;40758;54.038;11.684;2023-10-08T05:49:05;3.20;;;2.75;;
7295;SDS011;40758;54.038;11.684;2023-10-08T05:51:38;3.25;;;2.88;;
7295;SDS011;40758;54.038;11.684;2023-10-08T05:54:20;2.83;;;2.63;;
7295;SDS011;40758;54.038;11.684;2023-10-08T05:56:59;3.30;;;2.20;;
7295;SDS011;40758;54.038;11.684;2023-10-08T05:59:39;3.67;;;3.38;;
7295;SDS011;40758;54.038;11.684;2023-10-08T06:02:20;3.25;;;3.00;;
7295;SDS011;40758;54.038;11.684;2023-10-08T06:05:27;3.08;;;2.72;;
7295;SDS011;40758;54.038;11.684;2023-10-08T06:08:12;2.67;;;2.47;;
7295;SDS011;40758;54.038;11.684;2023-10-08T06:10:41;3.35;;;3.15;;
7295;SDS011;40758;54.038;11.684;2023-10-08T06:16:17;2.63;;;2.25;;
7295;SDS011;40758;54.038;11.684;2023-10-08T06:18:57;3.15;;;1.48;;
7295;SDS011;40758;54.038;11.684;2023-10-08T06:21:24;2.70;;;2.50;;
7295;SDS011;40758;54.038;11.684;2023-10-08T06:23:53;3.15;;;2.72;;
7295;SDS011;40758;54.038;11.684;2023-10-08T06:26:23;4.28;;;2.90;;
7295;SDS011;40758;54.038;11.684;2023-10-08T06:28:51;2.95;;;2.75;;
7295;SDS011;40758;54.038;11.684;2023-10-08T06:31:23;3.53;;;3.22;;
7295;SDS011;40758;54.038;11.684;2023-10-08T06:33:52;3.53;;;2.78;;
7295;SDS011;40758;54.038;11.684;2023-10-08T06:36:19;3.25;;;2.95;;
7295;SDS011;40758;54.038;11.684;2023-10-08T06:38:50;3.97;;;3.35;;
7295;SDS011;40758;54.038;11.684;2023-10-08T06:41:17;3.80;;;3.35;;
7295;SDS011;40758;54.038;11.684;2023-10-08T06:43:55;4.35;;;2.83;;
7295;SDS011;40758;54.038;11.684;2023-10-08T06:46:42;4.68;;;2.58;;
7295;SDS011;40758;54.038;11.684;2023-10-08T06:49:09;3.88;;;3.47;;
7295;SDS011;40758;54.038;11.684;2023-10-08T06:51:41;5.20;;;3.45;;
7295;SDS011;40758;54.038;11.684;2023-10-08T06:54:10;3.25;;;2.75;;
7295;SDS011;40758;54.038;11.684;2023-10-08T06:56:41;4.57;;;3.97;;
7295;SDS011;40758;54.038;11.684;2023-10-08T06:59:15;3.50;;;3.20;;
7295;SDS011;40758;54.038;11.684;2023-10-08T07:01:45;3.67;;;2.40;;
7295;SDS011;40758;54.038;11.684;2023-10-08T07:04:13;3.60;;;2.35;;
7295;SDS011;40758;54.038;11.684;2023-10-08T07:06:41;2.72;;;2.53;;
7295;SDS011;40758;54.038;11.684;2023-10-08T07:09:16;5.35;;;2.55;;
7295;SDS011;40758;54.038;11.684;2023-10-08T07:11:56;3.58;;;3.17;;
7295;SDS011;40758;54.038;11.684;2023-10-08T07:14:25;3.13;;;2.80;;
7295;SDS011;40758;54.038;11.684;2023-10-08T07:16:55;2.90;;;2.15;;
7295;SDS011;40758;54.038;11.684;2023-10-08T07:19:26;4.38;;;2.40;;
7295;SDS011;40758;54.038;11.684;2023-10-08T07:21:59;3.22;;;2.90;;
7295;SDS011;40758;54.038;11.684;2023-10-08T07:24:34;3.33;;;3.03;;
7295;SDS011;40758;54.038;11.684;2023-10-08T07:27:05;3.80;;;2.60;;
7295;SDS011;40758;54.038;11.684;2023-10-08T07:29:35;4.65;;;4.22;;
7295;SDS011;40758;54.038;11.684;2023-10-08T07:32:03;4.22;;;3.72;;
7295;SDS011;40758;54.038;11.684;2023-10-08T07:34:36;3.13;;;2.17;;
7295;SDS011;40758;54.038;11.684;2023-10-08T07:37:04;3.08;;;2.17;;
7295;SDS011;40758;54.038;11.684;2023-10-08T07:39:32;3.53;;;3.28;;
7295;SDS011;40758;54.038;11.684;2023-10-08T07:42:09;3.67;;;3.13;;
7295;SDS011;40758;54.038;11.684;2023-10-08T07:44:42;3.42;;;2.85;;
7295;SDS011;40758;54.038;11.684;2023-10-08T07:47:10;3.08;;;1.25;;
7295;SDS011;40758;54.038;11.684;2023-10-08T07:49:40;4.10;;;3.80;;
7295;SDS011;40758;54.038;11.684;2023-10-08T07:52:11;4.28;;;3.97;;
7295;SDS011;40758;54.038;11.684;2023-10-08T07:54:43;3.17;;;2.58;;
7295;SDS011;40758;54.038;11.684;2023-10-08T07:57:10;3.35;;;2.92;;
7295;SDS011;40758;54.038;11.684;2023-10-08T07:59:52;3.80;;;3.42;;
7295;SDS011;40758;54.038;11.684;2023-10-08T08:02:28;3.30;;;1.92;;
7295;SDS011;40758;54.038;11.684;2023-10-08T08:04:55;2.60;;;2.35;;
7295;SDS011;40758;54.038;11.684;2023-10-08T08:07:22;2.83;;;1.98;;
7295;SDS011;40758;54.038;11.684;2023-10-08T08:09:50;3.42;;;1.65;;
7295;SDS011;40758;54.038;11.684;2023-10-08T08:12:25;2.75;;;2.55;;
7295;SDS011;40758;54.038;11.684;2023-10-08T08:14:55;2.00;;;1.77;;
7295;SDS011;40758;54.038;11.684;2023-10-08T08:17:22;3.25;;;2.97;;
7295;SDS011;40758;54.038;11.684;2023-10-08T08:19:50;3.10;;;2.28;;
7295;SDS011;40758;54.038;11.684;2023-10-08T08:22:21;2.85;;;2.65;;
7295;SDS011;40758;54.038;11.684;2023-10-08T08:27:24;2.67;;;2.47;;
7295;SDS011;40758;54.038;11.684;2023-10-08T08:29:52;2.08;;;1.85;;
7295;SDS011;40758;54.038;11.684;2023-10-08T08:32:28;2.72;;;2.38;;
7295;SDS011;40758;54.038;11.684;2023-10-08T08:34:55;2.47;;;2.28;;
7295;SDS011;40758;54.038;11.684;2023-10-08T08:37:24;5.47;;;2.28;;
7295;SDS011;40758;54.038;11.684;2023-10-08T08:39:57;1.65;;;0.45;;
7295;SDS011;40758;54.038;11.684;2023-10-08T08:42:24;2.45;;;2.25;;
7295;SDS011;40758;54.038;11.684;2023-10-08T08:44:53;2.03;;;1.90;;
7295;SDS011;40758;54.038;11.684;2023-10-08T08:47:27;2.58;;;2.38;;
7295;SDS011;40758;54.038;11.684;2023-10-08T08:49:55;1.20;;;0.50;;
7295;SDS011;40758;54.038;11.684;2023-10-08T08:54:50;2.90;;;2.65;;
7295;SDS011;40758;54.038;11.684;2023-10-08T08:57:18;2.67;;;2.47;;
7295;SDS011;40758;54.038;11.684;2023-10-08T08:59:52;3.03;;;2.45;;
7295;SDS011;40758;54.038;11.684;2023-10-08T09:02:20;4.97;;;4.68;;
7295;SDS011;40758;54.038;11.684;2023-10-08T09:04:51;3.58;;;3.38;;
7295;SDS011;40758;54.038;11.684;2023-10-08T09:07:21;3.25;;;3.05;;
7295;SDS011;40758;54.038;11.684;2023-10-08T09:09:48;3.58;;;3.38;;
7295;SDS011;40758;54.038;11.684;2023-10-08T09:12:23;2.85;;;2.65;;
7295;SDS011;40758;54.038;11.684;2023-10-08T09:14:49;5.28;;;4.88;;
7295;SDS011;40758;54.038;11.684;2023-10-08T09:17:19;3.05;;;2.85;;
7295;SDS011;40758;54.038;11.684;2023-10-08T09:19:50;1.30;;;0.45;;
7295;SDS011;40758;54.038;11.684;2023-10-08T09:22:22;3.28;;;2.85;;
7295;SDS011;40758;54.038;11.684;2023-10-08T09:24:51;4.05;;;3.05;;
7295;SDS011;40758;54.038;11.684;2023-10-08T09:27:20;2.83;;;2.63;;
7295;SDS011;40758;54.038;11.684;2023-10-08T09:29:48;3.88;;;3.67;;
7295;SDS011;40758;54.038;11.684;2023-10-08T09:32:17;2.22;;;1.50;;
7295;SDS011;40758;54.038;11.684;2023-10-08T09:34:53;3.28;;;3.08;;
7295;SDS011;40758;54.038;11.684;2023-10-08T09:37:23;3.55;;;3.25;;
7295;SDS011;40758;54.038;11.684;2023-10-08T09:39:52;2.67;;;2.47;;
7295;SDS011;40758;54.038;11.684;2023-10-08T09:42:22;3.28;;;3.08;;
7295;SDS011;40758;54.038;11.684;2023-10-08T09:44:53;3.38;;;2.78;;
7295;SDS011;40758;54.038;11.684;2023-10-08T09:47:21;2.50;;;2.30;;
7295;SDS011;40758;54.038;11.684;2023-10-08T09:50:00;2.55;;;2.35;;
7295;SDS011;40758;54.038;11.684;2023-10-08T09:52:49;2.85;;;2.63;;
7295;SDS011;40758;54.038;11.684;2023-10-08T09:55:30;1.52;;;1.20;;
7295;SDS011;40758;54.038;11.684;2023-10-08T09:57:57;4.45;;;2.97;;
7295;SDS011;40758;54.038;11.684;2023-10-08T10:00:24;4.57;;;3.88;;
7295;SDS011;40758;54.038;11.684;2023-10-08T10:02:59;17.05;;;11.32;;
7295;SDS011;40758;54.038;11.684;2023-10-08T10:05:29;27.00;;;15.60;;
7295;SDS011;40758;54.038;11.684;2023-10-08T10:08:02;23.13;;;20.88;;
7295;SDS011;40758;54.038;11.684;2023-10-08T10:10:32;18.13;;;16.73;;
7295;SDS011;40758;54.038;11.684;2023-10-08T10:13:04;3.97;;;3.67;;
7295;SDS011;40758;54.038;11.684;2023-10-08T10:15:36;5.13;;;4.75;;
7295;SDS011;40758;54.038;11.684;2023-10-08T10:18:14;2.63;;;2.25;;
7295;SDS011;40758;54.038;11.684;2023-10-08T10:20:45;4.13;;;3.83;;
7295;SDS011;40758;54.038;11.684;2023-10-08T10:26:03;3.33;;;3.13;;
7295;SDS011;40758;54.038;11.684;2023-10-08T10:28:30;3.03;;;2.72;;
7295;SDS011;40758;54.038;11.684;2023-10-08T10:30:58;3.03;;;2.83;;
7295;SDS011;40758;54.038;11.684;2023-10-08T10:33:30;3.47;;;3.28;;
7295;SDS011;40758;54.038;11.684;2023-10-08T10:36:00;2.53;;;2.42;;
7295;SDS011;40758;54.038;11.684;2023-10-08T10:38:29;2.83;;;2.63;;
7295;SDS011;40758;54.038;11.684;2023-10-08T10:40:57;3.97;;;1.58;;
7295;SDS011;40758;54.038;11.684;2023-10-08T10:43:24;2.30;;;1.52;;
7295;SDS011;40758;54.038;11.684;2023-10-08T10:46:00;1.95;;;1.52;;
7295;SDS011;40758;54.038;11.684;2023-10-08T10:48:50;1.63;;;0.32;;
7295;SDS011;40758;54.038;11.684;2023-10-08T10:51:35;2.53;;;2.33;;
7295;SDS011;40758;54.038;11.684;2023-10-08T10:54:07;3.53;;;3.25;;
7295;SDS011;40758;54.038;11.684;2023-10-08T10:56:35;2.72;;;2.55;;
7295;SDS011;40758;54.038;11.684;2023-10-08T10:59:09;1.88;;;1.27;;
7295;SDS011;40758;54.038;11.684;2023-10-08T11:01:45;2.17;;;2.00;;
7295;SDS011;40758;54.038;11.684;2023-10-08T11:04:19;2.47;;;2.28;;
7295;SDS011;40758;54.038;11.684;2023-10-08T11:06:49;2.35;;;2.10;;
7295;SDS011;40758;54.038;11.684;2023-10-08T11:09:32;4.18;;;3.97;;
7295;SDS011;40758;54.038;11.684;2023-10-08T11:12:04;2.72;;;2.53;;
7295;SDS011;40758;54.038;11.684;2023-10-08T11:14:45;2.60;;;2.40;;
7295;SDS011;40758;54.038;11.684;2023-10-08T11:17:13;2.63;;;2.00;;
7295;SDS011;40758;54.038;11.684;2023-10-08T11:19:42;3.55;;;3.33;;
7295;SDS011;40758;54.038;11.684;2023-10-08T11:22:15;3.47;;;2.33;;
7295;SDS011;40758;54.038;11.684;2023-10-08T11:24:51;3.42;;;3.22;;
7295;SDS011;40758;54.038;11.684;2023-10-08T11:27:27;2.85;;;2.65;;
7295;SDS011;40758;54.038;11.684;2023-10-08T11:30:02;3.13;;;2.88;;
7295;SDS011;40758;54.038;11.684;2023-10-08T11:32:38;3.13;;;2.92;;
7295;SDS011;40758;54.038;11.684;2023-10-08T11:35:07;3.47;;;2.65;;
7295;SDS011;40758;54.038;11.684;2023-10-08T11:37:47;4.25;;;4.05;;
7295;SDS011;40758;54.038;11.684;2023-10-08T11:40:25;3.28;;;2.97;;
7295;SDS011;40758;54.038;11.684;2023-10-08T11:42:59;3.88;;;3.67;;
7295;SDS011;40758;54.038;11.684;2023-10-08T11:45:29;2.53;;;2.33;;
7295;SDS011;40758;54.038;11.684;2023-10-08T11:48:06;3.60;;;3.40;;
7295;SDS011;40758;54.038;11.684;2023-10-08T11:50:40;4.32;;;4.03;;
7295;SDS011;40758;54.038;11.684;2023-10-08T11:53:12;4.03;;;3.83;;
7295;SDS011;40758;54.038;11.684;2023-10-08T11:55:39;2.67;;;2.47;;
7295;SDS011;40758;54.038;11.684;2023-10-08T11:58:06;1.23;;;0.60;;
7295;SDS011;40758;54.038;11.684;2023-10-08T12:00:44;2.78;;;2.38;;
7295;SDS011;40758;54.038;11.684;2023-10-08T12:03:13;4.25;;;4.00;;
7295;SDS011;40758;54.038;11.684;2023-10-08T12:05:52;4.47;;;4.07;;
7295;SDS011;40758;54.038;11.684;2023-10-08T12:08:26;2.00;;;0.60;;
7295;SDS011;40758;54.038;11.684;2023-10-08T12:13:21;3.13;;;2.92;;
7295;SDS011;40758;54.038;11.684;2023-10-08T12:15:55;3.75;;;3.55;;
7295;SDS011;40758;54.038;11.684;2023-10-08T12:18:45;3.95;;;3.75;;
7295;SDS011;40758;54.038;11.684;2023-10-08T12:21:15;4.45;;;4.25;;
7295;SDS011;40758;54.038;11.684;2023-10-08T12:23:44;2.55;;;2.35;;
7295;SDS011;40758;54.038;11.684;2023-10-08T12:26:13;5.10;;;4.70;;
7295;SDS011;40758;54.038;11.684;2023-10-08T12:28:45;4.20;;;3.72;;
7295;SDS011;40758;54.038;11.684;2023-10-08T12:31:18;2.30;;;2.10;;
7295;SDS011;40758;54.038;11.684;2023-10-08T12:33:51;2.22;;;2.03;;
7295;SDS011;40758;54.038;11.684;2023-10-08T12:36:23;3.42;;;2.05;;
7295;SDS011;40758;54.038;11.684;2023-10-08T12:38:50;2.70;;;2.35;;
7295;SDS011;40758;54.038;11.684;2023-10-08T12:41:34;3.67;;;3.38;;
7295;SDS011;40758;54.038;11.684;2023-10-08T12:44:04;2.17;;;1.98;;
7295;SDS011;40758;54.038;11.684;2023-10-08T12:46:34;3.03;;;2.83;;
7295;SDS011;40758;54.038;11.684;2023-10-08T12:49:01;3.28;;;3.05;;
7295;SDS011;40758;54.038;11.684;2023-10-08T12:51:28;2.28;;;1.48;;
7295;SDS011;40758;54.038;11.684;2023-10-08T12:53:59;2.90;;;1.88;;
7295;SDS011;40758;54.038;11.684;2023-10-08T12:59:21;1.55;;;0.77;;
7295;SDS011;40758;54.038;11.684;2023-10-08T13:01:53;2.92;;;2.70;;
7295;SDS011;40758;54.038;11.684;2023-10-08T13:04:23;2.75;;;1.88;;
7295;SDS011;40758;54.038;11.684;2023-10-08T13:07:01;3.05;;;2.85;;
7295;SDS011;40758;54.038;11.684;2023-10-08T13:09:29;3.20;;;3.00;;
7295;SDS011;40758;54.038;11.684;2023-10-08T13:12:04;2.20;;;2.00;;
7295;SDS011;40758;54.038;11.684;2023-10-08T13:14:31;3.40;;;3.10;;
7295;SDS011;40758;54.038;11.684;2023-10-08T13:17:02;3.65;;;3.45;;
7295;SDS011;40758;54.038;11.684;2023-10-08T13:19:37;2.38;;;2.15;;
7295;SDS011;40758;54.038;11.684;2023-10-08T13:22:03;2.90;;;2.70;;
7295;SDS011;40758;54.038;11.684;2023-10-08T13:24:34;4.85;;;4.45;;
7295;SDS011;40758;54.038;11.684;2023-10-08T13:27:02;3.67;;;3.03;;
7295;SDS011;40758;54.038;11.684;2023-10-08T13:29:29;2.35;;;2.15;;
7295;SDS011;40758;54.038;11.684;2023-10-08T13:31:59;2.97;;;2.72;;
7295;SDS011;40758;54.038;11.684;2023-10-08T13:34:27;2.60;;;2.40;;
7295;SDS011;40758;54.038;11.684;2023-10-08T13:36:54;2.65;;;2.45;;
7295;SDS011;40758;54.038;11.684;2023-10-08T13:39:22;2.95;;;2.75;;
7295;SDS011;40758;54.038;11.684;2023-10-08T13:41:49;2.97;;;2.58;;
7295;SDS011;40758;54.038;11.684;2023-10-08T13:44:19;2.67;;;2.25;;
7295;SDS011;40758;54.038;11.684;2023-10-08T13:46:56;2.88;;;2.67;;
7295;SDS011;40758;54.038;11.684;2023-10-08T13:49:25;2.53;;;2.33;;
7295;SDS011;40758;54.038;11.684;2023-10-08T13:51:58;2.42;;;2.22;;
7295;SDS011;40758;54.038;11.684;2023-10-08T13:54:25;2.03;;;0.60;;
7295;SDS011;40758;54.038;11.684;2023-10-08T13:56:56;2.78;;;2.58;;
7295;SDS011;40758;54.038;11.684;2023-10-08T13:59:26;3.63;;;3.42;;
7295;SDS011;40758;54.038;11.684;2023-10-08T14:01:58;3.13;;;2.83;;
7295;SDS011;40758;54.038;11.684;2023-10-08T14:04:28;2.65;;;2.25;;
7295;SDS011;40758;54.038;11.684;2023-10-08T14:07:05;3.10;;;2.90;;
7295;SDS011;40758;54.038;11.684;2023-10-08T14:09:31;2.63;;;2.42;;
7295;SDS011;40758;54.038;11.684;2023-10-08T14:12:04;3.00;;;2.70;;
7295;SDS011;40758;54.038;11.684;2023-10-08T14:14:34;2.70;;;2.50;;
7295;SDS011;40758;54.038;11.684;2023-10-08T14:17:01;3.35;;;3.00;;
7295;SDS011;40758;54.038;11.684;2023-10-08T14:19:37;3.50;;;3.30;;
7295;SDS011;40758;54.038;11.684;2023-10-08T14:22:24;3.20;;;2.92;;
7295;SDS011;40758;54.038;11.684;2023-10-08T14:24:51;3.63;;;2.05;;
7295;SDS011;40758;54.038;11.684;2023-10-08T14:27:48;3.70;;;3.33;;
7295;SDS011;40758;54.038;11.684;2023-10-08T14:30:21;2.67;;;2.47;;
7295;SDS011;40758;54.038;11.684;2023-10-08T14:32:48;2.95;;;1.60;;
7295;SDS011;40758;54.038;11.684;2023-10-08T14:35:16;2.17;;;1.90;;
7295;SDS011;40758;54.038;11.684;2023-10-08T14:38:05;4.10;;;3.72;;
7295;SDS011;40758;54.038;11.684;2023-10-08T14:40:52;2.13;;;1.95;;
7295;SDS011;40758;54.038;11.684;2023-10-08T14:43:37;2.92;;;2.72;;
7295;SDS011;40758;54.038;11.684;2023-10-08T14:46:04;4.13;;;3.22;;
7295;SDS011;40758;54.038;11.684;2023-10-08T14:48:33;2.35;;;2.03;;
7295;SDS011;40758;54.038;11.684;2023-10-08T14:51:03;3.72;;;3.53;;
7295;SDS011;40758;54.038;11.684;2023-10-08T14:53:33;2.97;;;2.78;;
7295;SDS011;40758;54.038;11.684;2023-10-08T14:56:03;3.53;;;3.13;;
7295;SDS011;40758;54.038;11.684;2023-10-08T14:58:31;2.33;;;2.13;;
7295;SDS011;40758;54.038;11.684;2023-10-08T15:00:58;6.80;;;2.78;;
7295;SDS011;40758;54.038;11.684;2023-10-08T15:03:25;2.50;;;2.30;;
7295;SDS011;40758;54.038;11.684;2023-10-08T15:05:54;2.83;;;2.63;;
7295;SDS011;40758;54.038;11.684;2023-10-08T15:08:21;2.63;;;2.42;;
7295;SDS011;40758;54.038;11.684;2023-10-08T15:10:50;4.78;;;3.08;;
7295;SDS011;40758;54.038;11.684;2023-10-08T15:13:16;2.97;;;2.45;;
7295;SDS011;40758;54.038;11.684;2023-10-08T15:15:43;2.33;;;2.08;;
7295;SDS011;40758;54.038;11.684;2023-10-08T15:18:10;3.13;;;2.22;;
7295;SDS011;40758;54.038;11.684;2023-10-08T15:20:39;2.90;;;2.33;;
7295;SDS011;40758;54.038;11.684;2023-10-08T15:23:08;2.67;;;2.15;;
7295;SDS011;40758;54.038;11.684;2023-10-08T15:25:39;2.35;;;1.70;;
7295;SDS011;40758;54.038;11.684;2023-10-08T15:28:06;3.50;;;2.35;;
7295;SDS011;40758;54.038;11.684;2023-10-08T15:30:34;2.35;;;1.88;;
7295;SDS011;40758;54.038;11.684;2023-10-08T15:33:05;2.22;;;0.85;;
7295;SDS011;40758;54.038;11.684;2023-10-08T15:35:33;2.10;;;1.85;;
7295;SDS011;40758;54.038;11.684;2023-10-08T15:38:00;2.67;;;2.47;;
7295;SDS011;40758;54.038;11.684;2023-10-08T15:40:30;2.72;;;2.35;;
7295;SDS011;40758;54.038;11.684;2023-10-08T15:42:57;5.78;;;2.03;;
7295;SDS011;40758;54.038;11.684;2023-10-08T15:45:27;2.38;;;2.00;;
7295;SDS011;40758;54.038;11.684;2023-10-08T15:47:57;1.20;;;0.40;;